Time;durP1;ratioP1;P1;durP2;ratioP2;P2;SDS_P1;SDS_P2;PMS_P1;PMS_P2;Temp;Humidity;BMP_temperature;BMP_pressure;BME280_temperature;BME280_humidity;BME280_pressure;Samples;Min_cycle;Max_cycle;Signal;HPM_P1;HPM_P2
2023/08/27 00:01:40;;;;;;;4.95;3.50;;;17.90;73.10;;;;;;5061997;28;20048;-83
2023/08/27 00:04:08;;;;;;;7.60;4.05;;;18.20;72.10;;;;;;5042465;28;20044;-81
2023/08/27 00:06:36;;;;;;;5.45;2.80;;;18.30;71.80;;;;;;5034810;28;20017;-80
2023/08/27 00:09:03;;;;;;;5.72;3.10;;;18.50;71.60;;;;;;5034157;28;20017;-82
2023/08/27 00:11:30;;;;;;;6.40;2.58;;;18.60;70.60;;;;;;5071542;28;20029;-78
2023/08/27 00:13:58;;;;;;;4.13;3.40;;;18.70;71.00;;;;;;5046767;28;20503;-79
2023/08/27 00:16:25;;;;;;;4.40;2.97;;;18.90;69.70;;;;;;5044034;28;20029;-82
2023/08/27 00:18:52;;;;;;;5.45;2.95;;;19.20;69.00;;;;;;5040286;28;20052;-79
2023/08/27 00:21:20;;;;;;;5.78;2.85;;;19.40;67.10;;;;;;5039600;28;20037;-81
2023/08/27 00:23:47;;;;;;;3.95;2.10;;;19.50;66.40;;;;;;5036592;28;20025;-82
2023/08/27 00:26:14;;;;;;;5.40;2.10;;;19.40;66.90;;;;;;5038367;28;20481;-83
2023/08/27 00:28:42;;;;;;;5.43;2.47;;;19.40;66.90;;;;;;5045673;28;20057;-79
2023/08/27 00:31:09;;;;;;;3.85;2.00;;;19.40;66.70;;;;;;5053711;28;20480;-82
2023/08/27 00:33:40;;;;;;;4.07;2.33;;;19.50;66.20;;;;;;5040623;28;20021;-82
2023/08/27 00:36:09;;;;;;;5.70;2.10;;;19.70;65.70;;;;;;5047516;28;20021;-79
2023/08/27 00:38:37;;;;;;;4.32;2.30;;;20.10;64.60;;;;;;5042516;28;20511;-85
2023/08/27 00:41:05;;;;;;;2.67;1.90;;;20.20;63.70;;;;;;5036912;28;20034;-83
2023/08/27 00:43:33;;;;;;;6.20;2.42;;;20.30;63.80;;;;;;5047346;28;20028;-79
2023/08/27 00:46:02;;;;;;;2.35;1.65;;;20.40;63.80;;;;;;5041163;28;20432;-84
2023/08/27 00:48:30;;;;;;;2.65;1.77;;;20.50;61.90;;;;;;5039346;28;20452;-82
2023/08/27 00:50:57;;;;;;;3.67;1.65;;;20.80;61.10;;;;;;5036456;28;20021;-81
2023/08/27 00:53:25;;;;;;;4.50;2.00;;;21.00;59.60;;;;;;5041615;28;20048;-83
2023/08/27 00:55:53;;;;;;;3.05;1.60;;;21.20;59.30;;;;;;5041817;28;20079;-81
2023/08/27 00:58:21;;;;;;;5.32;2.10;;;21.30;59.70;;;;;;5042585;28;20021;-82
2023/08/27 01:00:49;;;;;;;3.90;1.90;;;21.50;57.50;;;;;;5039710;28;20061;-83
2023/08/27 01:03:16;;;;;;;5.13;2.38;;;21.70;57.80;;;;;;5053208;28;20144;-84
2023/08/27 01:05:44;;;;;;;3.88;2.10;;;21.80;57.00;;;;;;5052631;28;20067;-77
2023/08/27 01:08:38;;;;;;;3.95;2.17;;;21.90;56.70;;;;;;5053057;28;20021;-82
2023/08/27 01:11:33;;;;;;;3.67;2.20;;;22.00;56.10;;;;;;5053117;28;20017;-84
2023/08/27 01:14:06;;;;;;;3.28;2.40;;;22.10;55.50;;;;;;5053105;28;20060;-81
2023/08/27 01:16:35;;;;;;;4.13;2.20;;;22.10;55.50;;;;;;5049594;28;20564;-84
2023/08/27 01:19:07;;;;;;;3.83;1.95;;;22.00;54.90;;;;;;5069514;28;20044;-80
2023/08/27 01:21:35;;;;;;;4.72;2.05;;;22.10;56.40;;;;;;5072322;28;20029;-83
2023/08/27 01:24:02;;;;;;;4.50;2.45;;;22.20;56.90;;;;;;5072934;28;20058;-78
2023/08/27 01:27:11;;;;;;;3.97;2.78;;;22.20;56.40;;;;;;5073004;28;20028;-80
2023/08/27 01:29:48;;;;;;;4.38;2.33;;;22.20;55.80;;;;;;5072671;28;20062;-83
2023/08/27 01:32:39;;;;;;;4.72;2.33;;;22.30;53.40;;;;;;5072945;28;20016;-86
2023/08/27 01:35:09;;;;;;;4.05;2.55;;;22.40;52.80;;;;;;5051559;28;20376;-85
2023/08/27 01:37:42;;;;;;;4.07;2.33;;;22.30;53.70;;;;;;5052565;28;20031;-82
2023/08/27 01:40:09;;;;;;;4.50;2.53;;;22.20;53.80;;;;;;5052866;28;20060;-84
2023/08/27 01:42:37;;;;;;;4.43;2.20;;;22.10;54.50;;;;;;5052957;28;20059;-78
2023/08/27 01:45:06;;;;;;;3.08;1.98;;;22.00;54.10;;;;;;5052716;28;20017;-79
2023/08/27 01:47:35;;;;;;;4.75;2.05;;;21.90;54.20;;;;;;5039888;28;20060;-79
2023/08/27 01:50:03;;;;;;;4.18;2.28;;;21.80;54.60;;;;;;5043541;28;20036;-78
2023/08/27 01:52:31;;;;;;;5.97;2.35;;;21.80;55.00;;;;;;5048852;28;20112;-84
2023/08/27 01:54:58;;;;;;;3.80;1.90;;;21.80;55.30;;;;;;5042278;28;20018;-81
2023/08/27 01:57:26;;;;;;;5.40;2.08;;;21.70;56.20;;;;;;5045991;28;20033;-78
2023/08/27 01:59:54;;;;;;;3.75;2.05;;;21.70;57.00;;;;;;5042892;28;20029;-78
2023/08/27 02:02:22;;;;;;;3.10;1.80;;;21.70;57.70;;;;;;5050072;28;20021;-79
2023/08/27 02:04:49;;;;;;;4.15;2.03;;;21.70;58.00;;;;;;5044744;28;20032;-84
2023/08/27 02:07:18;;;;;;;4.18;1.67;;;21.70;57.80;;;;;;5053877;28;20025;-83
2023/08/27 02:09:45;;;;;;;3.70;1.85;;;21.70;57.90;;;;;;5050787;28;20037;-86
2023/08/27 02:12:13;;;;;;;3.70;1.77;;;21.70;57.90;;;;;;5036135;28;20512;-87
2023/08/27 02:14:40;;;;;;;3.03;1.70;;;21.70;58.00;;;;;;5044790;28;20480;-87
2023/08/27 02:17:08;;;;;;;3.33;1.85;;;21.50;58.10;;;;;;5046364;28;20550;-81
2023/08/27 02:19:35;;;;;;;2.90;1.92;;;21.50;58.30;;;;;;5043847;28;20044;-86
2023/08/27 02:22:02;;;;;;;6.53;2.03;;;21.40;58.40;;;;;;5047289;28;20033;-82
2023/08/27 02:24:36;;;;;;;4.82;2.25;;;21.30;58.80;;;;;;5052094;28;20028;-89
2023/08/27 02:27:03;;;;;;;3.28;1.50;;;21.30;58.90;;;;;;5053601;28;20028;-88
2023/08/27 02:29:30;;;;;;;3.80;2.00;;;21.20;59.20;;;;;;5056287;28;20025;-80
2023/08/27 02:31:58;;;;;;;4.97;2.08;;;21.10;59.40;;;;;;5071270;28;20029;-85
2023/08/27 02:34:25;;;;;;;4.15;1.83;;;21.10;59.50;;;;;;5071170;28;20040;-82
2023/08/27 02:36:54;;;;;;;2.97;1.67;;;21.00;59.70;;;;;;5070753;28;20021;-86
2023/08/27 02:39:23;;;;;;;4.20;1.77;;;21.00;59.80;;;;;;5062385;28;20025;-78
2023/08/27 02:41:50;;;;;;;4.25;2.20;;;20.90;59.70;;;;;;5069938;28;20036;-78
2023/08/27 02:44:18;;;;;;;3.83;1.90;;;20.80;59.70;;;;;;5072520;28;20021;-79
2023/08/27 02:46:46;;;;;;;3.40;1.95;;;20.70;59.90;;;;;;5072046;28;20031;-83
2023/08/27 02:49:14;;;;;;;7.45;2.15;;;20.60;60.00;;;;;;5058413;28;20096;-83
2023/08/27 02:51:41;;;;;;;4.75;1.95;;;20.50;60.10;;;;;;5069570;28;20021;-77
2023/08/27 02:54:09;;;;;;;2.67;1.90;;;20.40;60.40;;;;;;5072588;28;20017;-79
2023/08/27 02:56:36;;;;;;;4.32;1.85;;;20.40;60.70;;;;;;5067903;28;20107;-82
2023/08/27 02:59:04;;;;;;;5.15;1.55;;;20.40;60.40;;;;;;5060331;28;20025;-85
2023/08/27 03:01:31;;;;;;;5.20;1.40;;;20.50;60.50;;;;;;5057584;28;20036;-85
2023/08/27 03:04:01;;;;;;;3.53;1.60;;;20.60;59.40;;;;;;5057199;28;20094;-81
2023/08/27 03:06:28;;;;;;;4.70;1.35;;;20.70;59.30;;;;;;5056731;28;20056;-86
2023/08/27 03:08:55;;;;;;;2.10;1.45;;;20.80;59.20;;;;;;5056517;28;20040;-90
2023/08/27 03:11:23;;;;;;;6.40;1.58;;;20.90;58.70;;;;;;5056213;28;20017;-86
2023/08/27 03:13:50;;;;;;;4.65;1.15;;;20.90;58.20;;;;;;5055655;28;20040;-88
2023/08/27 03:16:17;;;;;;;4.55;1.73;;;21.10;57.30;;;;;;5056571;28;20025;-83
2023/08/27 03:18:46;;;;;;;3.30;1.60;;;21.10;57.80;;;;;;5057035;28;20021;-80
2023/08/27 03:21:21;;;;;;;5.05;1.33;;;21.10;58.10;;;;;;5058489;28;20075;-86
2023/08/27 03:23:50;;;;;;;2.00;1.40;;;21.20;57.80;;;;;;5057507;28;20025;-87
2023/08/27 03:26:17;;;;;;;4.60;1.40;;;21.20;58.20;;;;;;5056271;28;20376;-86
2023/08/27 03:28:46;;;;;;;4.05;1.20;;;21.20;58.50;;;;;;5063762;28;20047;-78
2023/08/27 03:31:19;;;;;;;2.47;1.10;;;21.20;58.50;;;;;;5066630;28;20032;-77
2023/08/27 03:33:47;;;;;;;4.88;1.20;;;21.20;57.70;;;;;;5068515;28;20032;-84
2023/08/27 03:36:16;;;;;;;3.30;1.30;;;21.20;57.90;;;;;;5065751;28;20114;-79
2023/08/27 03:38:44;;;;;;;3.53;1.10;;;21.20;58.00;;;;;;5055976;28;20108;-79
2023/08/27 03:41:11;;;;;;;4.07;1.20;;;21.30;57.40;;;;;;5042994;28;20038;-80
2023/08/27 03:43:39;;;;;;;2.58;1.13;;;21.30;57.60;;;;;;5036880;28;20036;-79
2023/08/27 03:46:06;;;;;;;2.53;1.27;;;21.30;57.50;;;;;;5035670;28;20049;-79
2023/08/27 03:48:34;;;;;;;3.10;1.10;;;21.30;57.00;;;;;;5035245;28;20025;-79
2023/08/27 03:51:01;;;;;;;3.38;1.10;;;21.30;56.90;;;;;;5035363;28;20518;-81
2023/08/27 03:53:29;;;;;;;2.60;1.15;;;21.30;56.90;;;;;;5034638;28;20109;-84
2023/08/27 03:55:56;;;;;;;4.97;1.00;;;21.30;56.00;;;;;;5034803;28;20033;-80
2023/08/27 03:58:24;;;;;;;3.00;0.95;;;21.30;55.90;;;;;;5034713;28;20036;-81
2023/08/27 04:00:51;;;;;;;3.22;0.95;;;21.40;54.80;;;;;;5034431;28;20025;-81
2023/08/27 04:03:19;;;;;;;4.25;1.08;;;21.50;54.40;;;;;;5034834;28;20021;-85
2023/08/27 04:05:49;;;;;;;1.98;1.10;;;21.40;54.40;;;;;;5034584;28;20022;-82
2023/08/27 04:08:19;;;;;;;3.42;1.17;;;21.50;54.80;;;;;;5034496;28;20022;-83
2023/08/27 04:10:53;;;;;;;3.38;0.82;;;21.50;55.20;;;;;;5034686;28;20025;-85
2023/08/27 04:13:21;;;;;;;1.42;0.82;;;21.50;55.20;;;;;;5032899;28;20413;-83
2023/08/27 04:16:05;;;;;;;2.40;1.00;;;21.50;55.00;;;;;;5034366;28;20477;-81
2023/08/27 04:18:33;;;;;;;3.25;1.20;;;21.50;54.80;;;;;;5034386;28;20033;-87
2023/08/27 04:21:01;;;;;;;2.03;1.10;;;21.50;55.10;;;;;;5034081;28;20049;-80
2023/08/27 04:23:29;;;;;;;1.00;0.70;;;21.60;55.50;;;;;;5034001;28;20030;-82
2023/08/27 04:25:57;;;;;;;1.80;0.90;;;21.60;54.60;;;;;;5034270;28;20432;-81
2023/08/27 04:28:25;;;;;;;1.55;0.88;;;21.60;54.20;;;;;;5034008;28;20055;-83
2023/08/27 04:30:52;;;;;;;3.33;1.08;;;21.60;54.00;;;;;;5034258;28;20480;-85
2023/08/27 04:33:20;;;;;;;2.13;0.93;;;21.50;54.60;;;;;;5034080;28;20032;-80
2023/08/27 04:35:52;;;;;;;2.08;1.05;;;21.50;54.90;;;;;;5034012;28;20127;-83
2023/08/27 04:38:20;;;;;;;2.97;1.20;;;21.50;55.20;;;;;;5033856;28;20033;-82
2023/08/27 04:40:51;;;;;;;2.83;1.20;;;21.50;54.80;;;;;;5033809;28;20022;-86
2023/08/27 04:43:20;;;;;;;3.45;1.10;;;21.60;55.00;;;;;;5033959;28;20083;-87
2023/08/27 04:45:47;;;;;;;3.28;1.20;;;21.50;55.40;;;;;;5033708;28;20024;-87
2023/08/27 04:48:15;;;;;;;3.67;1.30;;;21.60;54.90;;;;;;5033757;28;20127;-85
2023/08/27 04:50:46;;;;;;;2.28;0.98;;;21.60;55.10;;;;;;5033565;28;20041;-83
2023/08/27 04:53:14;;;;;;;1.10;0.98;;;21.60;55.60;;;;;;5033831;28;20026;-82
2023/08/27 04:55:42;;;;;;;3.28;1.30;;;21.60;55.70;;;;;;5033416;28;20099;-80
2023/08/27 04:58:09;;;;;;;3.20;1.10;;;21.60;55.30;;;;;;5033663;28;20108;-84
2023/08/27 05:00:37;;;;;;;2.38;1.00;;;21.60;55.40;;;;;;5033394;28;20037;-82
2023/08/27 05:03:05;;;;;;;2.55;0.90;;;21.60;55.30;;;;;;5033691;28;20056;-77
2023/08/27 05:05:32;;;;;;;2.40;1.05;;;21.60;55.00;;;;;;5033260;28;20029;-81
2023/08/27 05:08:00;;;;;;;2.10;0.82;;;21.50;55.10;;;;;;5033305;28;20073;-79
2023/08/27 05:10:27;;;;;;;1.45;1.00;;;21.50;55.00;;;;;;5033469;28;20423;-84
2023/08/27 05:12:54;;;;;;;3.28;0.82;;;21.50;54.90;;;;;;5033240;28;20044;-84
2023/08/27 05:15:22;;;;;;;3.75;0.88;;;21.40;54.50;;;;;;5032972;28;20060;-85
2023/08/27 05:17:49;;;;;;;3.15;0.90;;;21.30;54.00;;;;;;5033534;28;20083;-83
2023/08/27 05:20:17;;;;;;;1.10;0.70;;;21.40;53.20;;;;;;5033134;28;20052;-82
2023/08/27 05:22:44;;;;;;;3.80;0.80;;;21.30;53.60;;;;;;5033442;28;20101;-84
2023/08/27 05:25:29;;;;;;;0.80;0.80;;;21.30;53.70;;;;;;5090435;27;20394;-86
2023/08/27 05:27:57;;;;;;;2.22;0.85;;;21.20;54.20;;;;;;5090946;28;20403;-84
2023/08/27 05:30:25;;;;;;;1.60;0.80;;;21.20;54.60;;;;;;5092868;28;20026;-78
2023/08/27 05:32:54;;;;;;;4.30;0.80;;;21.10;54.40;;;;;;5092821;28;20047;-80
2023/08/27 05:35:24;;;;;;;1.02;0.73;;;21.10;53.80;;;;;;5093333;28;20031;-78
2023/08/27 05:37:51;;;;;;;1.98;0.63;;;21.10;54.30;;;;;;5091762;28;20029;-87
2023/08/27 05:40:20;;;;;;;1.13;0.82;;;21.10;55.20;;;;;;5072096;28;20021;-84
2023/08/27 05:42:47;;;;;;;2.35;0.85;;;21.00;55.40;;;;;;5074410;28;20025;-83
2023/08/27 05:45:15;;;;;;;1.77;1.00;;;20.90;55.50;;;;;;5071163;28;20060;-84
2023/08/27 05:47:42;;;;;;;1.77;0.80;;;20.80;56.00;;;;;;5072752;28;20021;-82
2023/08/27 05:50:10;;;;;;;2.13;0.90;;;20.80;56.30;;;;;;5071212;28;20471;-82
2023/08/27 05:52:37;;;;;;;2.58;0.95;;;20.70;55.90;;;;;;5070815;28;20029;-81
2023/08/27 05:55:05;;;;;;;3.40;1.17;;;20.60;56.10;;;;;;5073218;28;20036;-85
2023/08/27 05:57:32;;;;;;;2.67;1.35;;;20.50;56.70;;;;;;5071059;28;20078;-81
2023/08/27 05:59:59;;;;;;;1.73;0.70;;;20.50;56.20;;;;;;5072339;28;20100;-76
2023/08/27 06:02:27;;;;;;;2.00;0.70;;;20.40;56.40;;;;;;5094005;28;20450;-85
2023/08/27 06:04:54;;;;;;;3.13;0.82;;;20.40;56.80;;;;;;5095522;28;20040;-76
2023/08/27 06:07:21;;;;;;;2.90;0.90;;;20.30;56.70;;;;;;5090992;28;20024;-82
2023/08/27 06:09:49;;;;;;;2.90;0.65;;;20.30;56.80;;;;;;5103097;28;20052;-84
2023/08/27 06:12:17;;;;;;;2.33;0.80;;;20.20;56.80;;;;;;5088059;28;20028;-76
2023/08/27 06:14:45;;;;;;;2.25;1.50;;;20.20;57.40;;;;;;5102032;28;20020;-84
2023/08/27 06:17:13;;;;;;;1.35;0.90;;;20.20;57.70;;;;;;5105982;28;20019;-85
2023/08/27 06:19:40;;;;;;;2.53;1.00;;;20.10;57.90;;;;;;5102205;28;20028;-78
2023/08/27 06:22:07;;;;;;;2.72;0.90;;;20.00;58.20;;;;;;5102713;28;20471;-81
2023/08/27 06:24:35;;;;;;;2.05;0.80;;;19.90;58.10;;;;;;5096468;28;20048;-78
2023/08/27 06:27:02;;;;;;;1.48;0.93;;;19.90;57.90;;;;;;5090532;28;20068;-79
2023/08/27 06:29:30;;;;;;;3.75;0.90;;;19.80;58.20;;;;;;5093036;28;20028;-89
2023/08/27 06:31:58;;;;;;;2.50;0.80;;;19.70;58.70;;;;;;5090198;28;20025;-81
2023/08/27 06:34:25;;;;;;;1.15;0.70;;;19.70;59.10;;;;;;5095382;28;20032;-78
2023/08/27 06:36:52;;;;;;;1.60;0.70;;;19.60;59.40;;;;;;5069735;28;20025;-81
2023/08/27 06:39:22;;;;;;;4.40;1.13;;;19.50;59.50;;;;;;5063915;28;20032;-84
2023/08/27 06:41:50;;;;;;;3.13;0.90;;;19.50;59.70;;;;;;5068573;28;20024;-86
2023/08/27 06:44:17;;;;;;;0.98;0.68;;;19.50;60.10;;;;;;5073190;28;20078;-81
2023/08/27 06:46:45;;;;;;;3.13;0.73;;;19.50;60.30;;;;;;5070469;28;20017;-82
2023/08/27 06:49:12;;;;;;;3.85;1.20;;;19.30;60.40;;;;;;5083021;28;20031;-78
2023/08/27 06:51:39;;;;;;;2.63;1.00;;;19.30;60.60;;;;;;5086237;28;20024;-77
2023/08/27 06:54:07;;;;;;;2.50;1.05;;;19.20;60.80;;;;;;5074604;28;20092;-79
2023/08/27 06:56:35;;;;;;;1.95;1.05;;;19.20;61.00;;;;;;5073784;28;20068;-78
2023/08/27 06:59:02;;;;;;;3.35;1.10;;;19.20;61.30;;;;;;5081585;28;20085;-78
2023/08/27 07:01:30;;;;;;;4.75;1.30;;;19.10;61.60;;;;;;5076240;28;20410;-76
2023/08/27 07:03:58;;;;;;;1.48;1.08;;;19.00;61.70;;;;;;5064484;28;20032;-80
2023/08/27 07:06:27;;;;;;;3.65;1.10;;;19.00;62.20;;;;;;5068330;28;20488;-80
2023/08/27 07:08:55;;;;;;;3.40;1.10;;;19.00;62.30;;;;;;5066352;28;20061;-81
2023/08/27 07:11:22;;;;;;;3.58;1.10;;;18.90;62.40;;;;;;5059153;28;20518;-79
2023/08/27 07:13:50;;;;;;;3.83;1.05;;;18.90;62.70;;;;;;5067563;28;20032;-80
2023/08/27 07:16:19;;;;;;;2.15;1.00;;;18.80;62.70;;;;;;5072243;28;20036;-80
2023/08/27 07:18:46;;;;;;;2.17;0.82;;;18.80;62.90;;;;;;5088002;28;20047;-83
2023/08/27 07:21:14;;;;;;;1.10;0.90;;;18.80;63.00;;;;;;5075699;28;20383;-81
2023/08/27 07:23:41;;;;;;;2.83;1.08;;;18.80;63.10;;;;;;5076965;28;20044;-77
2023/08/27 07:26:08;;;;;;;1.40;0.80;;;18.80;63.10;;;;;;5084299;28;20164;-83
2023/08/27 07:28:36;;;;;;;1.90;0.80;;;18.80;63.20;;;;;;5074826;28;20446;-81
2023/08/27 07:31:03;;;;;;;1.45;0.90;;;18.80;63.30;;;;;;5075025;28;20056;-79
2023/08/27 07:33:30;;;;;;;1.92;1.10;;;18.70;63.40;;;;;;5079790;28;20125;-79
2023/08/27 07:35:58;;;;;;;4.03;1.20;;;18.70;63.80;;;;;;5089418;28;20024;-78
2023/08/27 07:38:27;;;;;;;1.92;0.80;;;18.70;63.80;;;;;;5074680;28;20111;-79
2023/08/27 07:40:55;;;;;;;2.20;0.98;;;18.70;63.90;;;;;;5074614;28;20507;-80
2023/08/27 07:43:22;;;;;;;1.70;0.80;;;18.60;64.10;;;;;;5072742;28;20113;-79
2023/08/27 07:45:50;;;;;;;2.67;1.00;;;18.60;64.10;;;;;;5070797;28;20051;-79
2023/08/27 07:48:17;;;;;;;1.27;0.88;;;18.50;64.40;;;;;;5073271;28;20021;-82
2023/08/27 07:50:45;;;;;;;3.15;1.30;;;18.50;64.40;;;;;;5074107;28;20123;-81
2023/08/27 07:53:13;;;;;;;3.00;1.00;;;18.50;64.40;;;;;;5074037;28;20073;-83
2023/08/27 07:55:40;;;;;;;2.90;1.00;;;18.50;64.50;;;;;;5073921;28;20079;-81
2023/08/27 07:58:08;;;;;;;3.10;1.20;;;18.40;64.80;;;;;;5073901;28;20024;-82
2023/08/27 08:00:35;;;;;;;2.83;1.10;;;18.40;64.80;;;;;;5074038;28;20112;-82
2023/08/27 08:03:02;;;;;;;3.70;1.23;;;18.30;64.90;;;;;;5064815;28;20028;-81
2023/08/27 08:05:30;;;;;;;3.83;0.90;;;18.30;65.00;;;;;;5069423;28;20082;-81
2023/08/27 08:07:58;;;;;;;2.10;1.23;;;18.30;65.10;;;;;;5073792;28;20033;-83
2023/08/27 08:10:25;;;;;;;4.18;1.35;;;18.30;65.40;;;;;;5073754;28;20471;-84
2023/08/27 08:12:53;;;;;;;3.90;1.45;;;18.30;65.40;;;;;;5073546;28;20104;-84
2023/08/27 08:15:20;;;;;;;3.33;1.30;;;18.30;65.60;;;;;;5073683;28;20035;-82
2023/08/27 08:17:48;;;;;;;3.28;1.50;;;18.30;65.70;;;;;;5073522;28;20039;-81
2023/08/27 08:20:15;;;;;;;4.88;1.42;;;18.20;65.90;;;;;;5073585;28;20032;-79
2023/08/27 08:22:43;;;;;;;5.55;1.50;;;18.20;66.10;;;;;;5073442;28;20024;-82
2023/08/27 08:25:10;;;;;;;5.90;2.30;;;18.20;66.50;;;;;;5068178;28;20045;-86
2023/08/27 08:27:40;;;;;;;4.90;2.90;;;18.30;67.10;;;;;;5073183;28;20021;-83
2023/08/27 08:30:09;;;;;;;5.20;2.50;;;18.20;67.50;;;;;;5073496;28;20434;-80
2023/08/27 08:32:36;;;;;;;4.47;2.10;;;18.30;68.10;;;;;;5073385;28;20408;-81
2023/08/27 08:35:04;;;;;;;4.82;2.20;;;18.20;68.00;;;;;;5073893;28;20082;-79
2023/08/27 08:37:31;;;;;;;4.68;2.40;;;18.20;68.10;;;;;;5073339;28;20099;-79
2023/08/27 08:39:59;;;;;;;5.88;2.45;;;18.20;68.40;;;;;;5070530;28;20474;-82
2023/08/27 08:42:43;;;;;;;2.35;1.23;;;18.20;68.60;;;;;;5056649;28;20059;-84
2023/08/27 08:45:16;;;;;;;4.15;2.47;;;18.10;69.00;;;;;;5053038;28;20118;-81
2023/08/27 08:47:45;;;;;;;2.67;1.33;;;18.10;69.20;;;;;;5052784;28;20476;-81
2023/08/27 08:50:15;;;;;;;3.92;1.77;;;18.20;69.40;;;;;;5053020;28;20017;-80
2023/08/27 08:52:45;;;;;;;4.75;1.63;;;18.10;69.40;;;;;;5052953;28;20021;-80
2023/08/27 08:55:16;;;;;;;3.08;1.55;;;18.10;69.60;;;;;;5052830;28;20021;-81
2023/08/27 08:58:07;;;;;;;3.40;1.60;;;18.00;69.60;;;;;;5052656;28;20537;-83
2023/08/27 09:00:35;;;;;;;5.05;2.00;;;18.00;69.70;;;;;;5053051;28;20146;-80
2023/08/27 09:03:04;;;;;;;4.28;1.92;;;18.00;69.70;;;;;;5053248;28;20024;-81
2023/08/27 09:05:36;;;;;;;1.92;1.27;;;18.00;70.10;;;;;;5052751;28;20106;-81
2023/08/27 09:08:06;;;;;;;2.15;1.27;;;18.10;69.70;;;;;;5052857;28;20105;-83
2023/08/27 09:10:34;;;;;;;5.15;1.30;;;18.00;69.60;;;;;;5052781;28;20143;-81
2023/08/27 09:13:05;;;;;;;4.45;1.40;;;18.00;70.00;;;;;;5052796;28;20021;-81
2023/08/27 09:15:32;;;;;;;3.00;1.23;;;18.10;69.70;;;;;;5052648;28;20088;-82
2023/08/27 09:18:00;;;;;;;3.50;1.40;;;18.00;69.80;;;;;;5052814;28;20021;-84
2023/08/27 09:20:27;;;;;;;6.90;1.70;;;18.00;70.00;;;;;;5052645;28;20387;-82
2023/08/27 09:22:56;;;;;;;4.43;1.63;;;18.00;70.50;;;;;;5052685;28;20100;-82
2023/08/27 09:25:23;;;;;;;3.53;2.10;;;18.00;70.30;;;;;;5052163;28;20049;-83
2023/08/27 09:27:51;;;;;;;3.05;1.42;;;18.00;70.40;;;;;;5052629;28;20063;-80
2023/08/27 09:30:18;;;;;;;3.97;1.40;;;17.90;70.80;;;;;;5052549;28;20472;-81
2023/08/27 09:32:49;;;;;;;3.25;1.50;;;17.90;70.70;;;;;;5052576;28;20053;-82
2023/08/27 09:35:16;;;;;;;2.95;1.60;;;17.90;70.80;;;;;;5052570;28;20044;-79
2023/08/27 09:37:44;;;;;;;2.47;1.48;;;17.90;70.90;;;;;;5052306;28;20361;-80
2023/08/27 09:40:16;;;;;;;5.28;1.65;;;17.90;70.90;;;;;;5052328;28;20021;-83
2023/08/27 09:42:44;;;;;;;3.97;1.33;;;17.90;71.10;;;;;;5052453;28;20032;-82
2023/08/27 09:45:12;;;;;;;4.60;1.77;;;17.90;71.10;;;;;;5052387;28;20029;-82
2023/08/27 09:47:40;;;;;;;4.00;1.50;;;17.80;71.10;;;;;;5052252;28;20097;-80
2023/08/27 09:50:16;;;;;;;6.05;1.38;;;17.80;71.10;;;;;;5052613;28;20114;-85
2023/08/27 09:52:43;;;;;;;3.42;1.40;;;17.80;71.20;;;;;;5052412;28;20032;-82
2023/08/27 09:55:17;;;;;;;2.58;1.40;;;17.80;71.30;;;;;;5052926;28;20036;-82
2023/08/27 09:57:55;;;;;;;3.50;1.40;;;17.80;71.40;;;;;;5050745;28;20468;-82
2023/08/27 10:00:24;;;;;;;1.40;1.20;;;17.80;71.40;;;;;;5052412;28;20021;-81
2023/08/27 10:02:53;;;;;;;1.80;1.17;;;17.80;71.50;;;;;;5052352;28;20448;-81
2023/08/27 10:05:32;;;;;;;2.38;1.40;;;17.80;71.80;;;;;;5051980;28;20041;-80
2023/08/27 10:08:02;;;;;;;3.20;1.58;;;17.80;71.60;;;;;;5052296;28;20021;-83
2023/08/27 10:10:31;;;;;;;1.77;1.20;;;17.70;71.60;;;;;;5053443;28;20049;-82
2023/08/27 10:13:00;;;;;;;3.03;1.20;;;17.70;71.70;;;;;;5056050;28;20091;-80
2023/08/27 10:15:28;;;;;;;2.25;1.33;;;17.70;71.80;;;;;;5055892;28;20021;-82
2023/08/27 10:17:56;;;;;;;3.97;1.65;;;17.70;71.80;;;;;;5056140;28;20029;-83
2023/08/27 10:20:24;;;;;;;2.67;1.13;;;17.70;71.80;;;;;;5055891;28;20496;-84
2023/08/27 10:22:52;;;;;;;2.47;1.38;;;17.70;72.00;;;;;;5055763;28;20031;-82
2023/08/27 10:25:20;;;;;;;4.80;1.30;;;17.70;71.90;;;;;;5055608;28;20049;-77
2023/08/27 10:27:49;;;;;;;3.10;1.30;;;17.70;72.00;;;;;;5055784;28;20067;-82
2023/08/27 10:30:18;;;;;;;6.57;1.35;;;17.70;72.10;;;;;;5055689;28;20029;-84
2023/08/27 10:32:46;;;;;;;3.90;1.50;;;17.70;72.20;;;;;;5055889;28;20464;-84
2023/08/27 10:35:14;;;;;;;6.32;1.52;;;17.60;72.20;;;;;;5055692;28;20112;-80
2023/08/27 10:37:48;;;;;;;3.13;1.50;;;17.60;72.30;;;;;;5074414;28;20067;-84
2023/08/27 10:40:16;;;;;;;2.88;1.40;;;17.70;72.50;;;;;;5089109;28;20103;-78
2023/08/27 10:42:44;;;;;;;3.42;1.55;;;17.70;72.50;;;;;;5073284;28;20492;-79
2023/08/27 10:45:21;;;;;;;2.05;1.23;;;17.60;72.50;;;;;;5088486;28;20050;-85
2023/08/27 10:48:07;;;;;;;2.42;1.25;;;17.60;72.50;;;;;;5089391;28;20033;-79
2023/08/27 10:50:49;;;;;;;4.60;1.30;;;17.60;72.60;;;;;;5055899;28;20427;-80
2023/08/27 10:53:17;;;;;;;3.42;1.60;;;17.70;72.70;;;;;;5054222;28;20388;-80
2023/08/27 10:55:51;;;;;;;3.25;1.30;;;17.70;72.60;;;;;;5069254;28;20135;-82
2023/08/27 10:58:23;;;;;;;4.57;1.30;;;17.70;73.00;;;;;;5072277;28;20434;-85
2023/08/27 11:01:10;;;;;;;3.40;1.27;;;17.70;72.40;;;;;;5073846;28;20263;-87
2023/08/27 11:04:04;;;;;;;3.70;1.40;;;17.60;72.60;;;;;;5065741;28;20083;-85
2023/08/27 11:06:46;;;;;;;5.72;1.58;;;17.60;72.90;;;;;;5051757;28;20476;-85
2023/08/27 11:09:25;;;;;;;3.90;1.58;;;17.60;72.90;;;;;;5055375;28;20495;-85
2023/08/27 11:12:01;;;;;;;5.65;1.77;;;17.60;72.80;;;;;;5055463;28;20029;-86
2023/08/27 11:14:28;;;;;;;6.13;1.80;;;17.50;73.00;;;;;;5059822;28;20197;-85
2023/08/27 11:16:59;;;;;;;5.82;1.70;;;17.50;73.00;;;;;;5070990;28;20082;-85
2023/08/27 11:19:34;;;;;;;4.30;1.98;;;17.50;73.10;;;;;;5076046;28;20031;-85
2023/08/27 11:22:19;;;;;;;3.97;2.00;;;17.50;73.00;;;;;;5075251;28;20025;-85
2023/08/27 11:24:54;;;;;;;4.15;1.50;;;17.50;73.20;;;;;;5066921;28;20391;-86
2023/08/27 11:27:25;;;;;;;3.72;1.50;;;17.40;73.20;;;;;;5061555;28;20024;-85
2023/08/27 11:29:55;;;;;;;3.25;1.50;;;17.40;73.20;;;;;;5065923;28;20118;-85
2023/08/27 11:32:23;;;;;;;8.20;1.90;;;17.30;73.30;;;;;;5073769;28;20033;-85
2023/08/27 11:34:53;;;;;;;8.32;2.75;;;17.30;73.40;;;;;;5072457;28;20021;-86
2023/08/27 11:37:30;;;;;;;6.35;2.10;;;17.20;73.40;;;;;;5064556;28;20036;-84
2023/08/27 11:39:57;;;;;;;5.25;2.25;;;17.20;73.50;;;;;;5054806;28;20043;-85
2023/08/27 11:42:24;;;;;;;4.60;1.77;;;17.10;73.60;;;;;;5072565;28;20094;-85
2023/08/27 11:44:54;;;;;;;5.78;2.40;;;17.00;73.80;;;;;;5063882;28;20025;-84
2023/08/27 11:47:22;;;;;;;4.15;2.00;;;17.00;74.10;;;;;;5070969;28;20052;-83
2023/08/27 11:49:52;;;;;;;5.40;2.60;;;16.90;74.20;;;;;;5069774;28;20048;-84
2023/08/27 11:52:19;;;;;;;5.60;2.75;;;16.90;74.50;;;;;;5057712;28;20060;-85
2023/08/27 11:54:49;;;;;;;5.53;2.80;;;16.80;74.60;;;;;;5055733;28;20029;-85
2023/08/27 11:57:16;;;;;;;5.95;2.58;;;16.70;74.80;;;;;;5056185;28;20103;-84
2023/08/27 11:59:44;;;;;;;7.28;3.38;;;16.70;75.10;;;;;;5054140;28;20021;-84
2023/08/27 12:02:12;;;;;;;7.00;3.63;;;16.70;75.10;;;;;;5055332;28;20025;-81
2023/08/27 12:04:42;;;;;;;8.45;3.67;;;16.70;75.20;;;;;;5054619;28;20037;-85
2023/08/27 12:07:09;;;;;;;6.82;3.53;;;16.60;75.30;;;;;;5057444;28;20021;-83
2023/08/27 12:09:37;;;;;;;7.18;3.40;;;16.60;75.40;;;;;;5055142;28;20549;-83
2023/08/27 12:12:07;;;;;;;7.05;3.17;;;16.50;75.80;;;;;;5069503;28;20078;-85
2023/08/27 12:14:36;;;;;;;6.35;2.88;;;16.50;76.00;;;;;;5072845;28;20429;-84
2023/08/27 12:17:09;;;;;;;5.57;2.60;;;16.40;76.10;;;;;;5073910;28;20029;-82
2023/08/27 12:19:40;;;;;;;4.72;2.60;;;16.40;76.20;;;;;;5073412;28;20368;-84
2023/08/27 12:22:08;;;;;;;6.15;2.70;;;16.30;76.40;;;;;;5059719;28;20115;-84
2023/08/27 12:24:43;;;;;;;5.60;2.83;;;16.30;76.30;;;;;;5073098;28;20376;-83
2023/08/27 12:27:15;;;;;;;5.95;2.88;;;16.30;76.40;;;;;;5071990;28;21860;-81
2023/08/27 12:29:46;;;;;;;4.70;2.70;;;16.20;76.60;;;;;;5072922;28;20044;-77
2023/08/27 12:32:16;;;;;;;5.57;2.80;;;16.20;76.90;;;;;;5091735;28;20031;-80
2023/08/27 12:34:48;;;;;;;5.68;2.88;;;16.20;77.00;;;;;;5093070;28;20051;-80
2023/08/27 12:37:20;;;;;;;7.57;3.20;;;16.20;77.10;;;;;;5093424;28;20027;-81
2023/08/27 12:39:50;;;;;;;7.72;3.22;;;16.20;76.80;;;;;;5056630;28;20031;-81
2023/08/27 12:42:18;;;;;;;5.57;3.50;;;16.10;76.90;;;;;;5054041;28;20044;-84
2023/08/27 12:44:46;;;;;;;5.80;3.15;;;16.10;77.10;;;;;;5053805;28;20048;-84
2023/08/27 12:47:13;;;;;;;4.70;2.80;;;16.00;77.10;;;;;;5054131;28;20029;-79
2023/08/27 12:49:43;;;;;;;4.82;2.88;;;15.90;77.50;;;;;;5053800;28;20112;-77
2023/08/27 12:52:11;;;;;;;4.88;2.80;;;16.00;77.80;;;;;;5054004;28;20024;-77
2023/08/27 12:54:38;;;;;;;5.78;3.00;;;15.90;77.70;;;;;;5053714;28;20021;-81
2023/08/27 12:57:05;;;;;;;7.10;2.80;;;15.90;77.70;;;;;;5055763;28;20111;-83
2023/08/27 12:59:33;;;;;;;6.25;3.08;;;15.80;77.80;;;;;;5067932;28;20497;-84